createdAt,value
2023-02-23T00:01:28.660Z,9.92
2023-02-23T00:03:57.536Z,9.92
2023-02-23T00:06:26.736Z,9.91
2023-02-23T00:08:53.879Z,9.90
2023-02-23T00:11:21.455Z,9.93
2023-02-23T00:13:52.554Z,9.88
2023-02-23T00:16:21.982Z,9.86
2023-02-23T00:19:00.451Z,9.81
2023-02-23T00:21:30.049Z,9.80
2023-02-23T00:23:59.754Z,9.76
2023-02-23T00:26:31.640Z,9.74
2023-02-23T00:28:58.498Z,9.76
2023-02-23T00:31:27.306Z,9.80
2023-02-23T00:33:55.649Z,9.80
2023-02-23T00:36:25.385Z,9.80
2023-02-23T00:38:58.262Z,9.82
2023-02-23T00:41:30.421Z,9.82
2023-02-23T00:43:59.599Z,9.81
2023-02-23T00:46:28.891Z,9.78
2023-02-23T00:48:57.261Z,9.78
2023-02-23T00:51:32.703Z,9.75
2023-02-23T00:54:00.539Z,9.74
2023-02-23T00:56:28.199Z,9.74
2023-02-23T00:58:55.452Z,9.71
2023-02-23T01:01:22.654Z,9.71
2023-02-23T01:03:49.273Z,9.69
2023-02-23T01:06:17.709Z,9.67
2023-02-23T01:08:50.568Z,9.68
2023-02-23T01:11:21.462Z,9.67
2023-02-23T01:13:49.262Z,9.70
2023-02-23T01:16:18.102Z,9.74
2023-02-23T01:18:45.659Z,9.74
2023-02-23T01:21:21.215Z,9.71
2023-02-23T01:23:48.074Z,9.71
2023-02-23T01:26:25.914Z,9.72
2023-02-23T01:28:55.562Z,9.71
2023-02-23T01:31:23.983Z,9.73
2023-02-23T01:33:54.878Z,9.73
2023-02-23T01:36:21.731Z,9.73
2023-02-23T01:38:49.261Z,9.75
2023-02-23T01:41:16.709Z,9.75
2023-02-23T01:43:55.564Z,9.76
2023-02-23T01:46:22.373Z,9.77
2023-02-23T01:48:49.844Z,9.75
2023-02-23T01:51:21.096Z,9.75
2023-02-23T01:53:56.243Z,9.74
2023-02-23T01:56:27.762Z,9.73
2023-02-23T01:58:58.000Z,9.74
2023-02-23T02:01:24.960Z,9.74
2023-02-23T02:04:06.892Z,9.73
2023-02-23T02:06:36.377Z,9.73
2023-02-23T02:09:08.973Z,9.74
2023-02-23T02:11:37.262Z,9.74
2023-02-23T02:14:12.969Z,9.74
2023-02-23T02:17:10.266Z,9.75
2023-02-23T02:20:15.538Z,9.74
2023-02-23T02:23:16.313Z,9.72
2023-02-23T02:25:48.925Z,9.71
2023-02-23T02:28:43.378Z,9.68
2023-02-23T02:31:28.155Z,9.66
2023-02-23T02:34:25.986Z,9.67
2023-02-23T02:37:07.482Z,9.66
2023-02-23T02:39:53.636Z,9.64
2023-02-23T02:42:29.442Z,9.67
2023-02-23T02:45:30.774Z,9.66
2023-02-23T02:48:06.367Z,9.65
2023-02-23T02:50:48.121Z,9.62
2023-02-23T02:53:21.301Z,9.63
2023-02-23T02:55:49.251Z,9.62
2023-02-23T02:58:17.870Z,9.63
2023-02-23T03:01:06.626Z,9.63
2023-02-23T03:03:51.869Z,9.63
2023-02-23T03:06:47.804Z,9.60
2023-02-23T03:09:45.094Z,9.60
2023-02-23T03:12:47.794Z,9.60
2023-02-23T03:16:11.749Z,9.61
2023-02-23T03:19:25.140Z,9.60
2023-02-23T03:22:26.218Z,9.59
2023-02-23T03:25:21.087Z,9.59
2023-02-23T03:28:34.193Z,9.58
2023-02-23T03:31:49.542Z,9.57
2023-02-23T03:34:52.460Z,9.57
2023-02-23T03:37:49.621Z,9.58
2023-02-23T03:40:42.135Z,9.57
2023-02-23T03:43:35.171Z,9.57
2023-02-23T03:46:23.500Z,9.53
2023-02-23T03:49:12.466Z,9.52
2023-02-23T03:52:00.911Z,9.51
2023-02-23T03:54:57.931Z,9.52
2023-02-23T03:57:46.405Z,9.53
2023-02-23T04:00:38.562Z,9.52
2023-02-23T04:03:26.774Z,9.47
2023-02-23T04:06:14.611Z,9.44
2023-02-23T04:09:00.732Z,9.45
2023-02-23T04:12:10.891Z,9.46
2023-02-23T04:14:49.464Z,9.43
2023-02-23T04:17:17.118Z,9.42
2023-02-23T04:19:54.961Z,9.41
2023-02-23T04:22:23.115Z,9.41
2023-02-23T04:24:51.034Z,9.40
2023-02-23T04:27:18.473Z,9.39
2023-02-23T04:29:45.218Z,9.39
2023-02-23T04:32:17.906Z,9.40
2023-02-23T04:34:45.427Z,9.41
2023-02-23T04:37:13.250Z,9.42
2023-02-23T04:39:39.877Z,9.41
2023-02-23T04:42:06.453Z,9.40
2023-02-23T04:44:32.976Z,9.39
2023-02-23T04:46:59.478Z,9.42
2023-02-23T04:49:26.030Z,9.43
2023-02-23T04:51:52.511Z,9.45
2023-02-23T04:54:19.030Z,9.44
2023-02-23T04:56:45.496Z,9.45
2023-02-23T04:59:12.525Z,9.44
2023-02-23T05:01:39.080Z,9.45
2023-02-23T05:04:05.659Z,9.45
2023-02-23T05:06:32.759Z,9.46
2023-02-23T05:08:59.276Z,9.44
2023-02-23T05:11:27.845Z,9.45
2023-02-23T05:13:54.681Z,9.46
2023-02-23T05:16:21.518Z,9.46
2023-02-23T05:18:48.748Z,9.44
2023-02-23T05:21:15.329Z,9.45
2023-02-23T05:23:42.031Z,9.43
2023-02-23T05:26:12.988Z,9.42
2023-02-23T05:28:42.021Z,9.43
2023-02-23T05:31:09.434Z,9.41
2023-02-23T05:33:43.093Z,9.39
2023-02-23T05:36:12.799Z,9.40
2023-02-23T05:38:41.562Z,9.40
2023-02-23T05:41:14.002Z,9.38
2023-02-23T05:43:40.713Z,9.37
2023-02-23T05:46:14.734Z,9.37
2023-02-23T05:48:41.298Z,9.38
2023-02-23T05:51:10.819Z,9.33
2023-02-23T05:53:37.988Z,9.32
2023-02-23T05:56:06.334Z,9.28
2023-02-23T05:58:33.002Z,9.29
2023-02-23T06:00:59.726Z,9.30
2023-02-23T06:03:26.705Z,9.30
2023-02-23T06:05:55.360Z,9.31
2023-02-23T06:08:21.906Z,9.30
2023-02-23T06:10:48.864Z,9.32
2023-02-23T06:13:16.404Z,9.32
2023-02-23T06:15:43.998Z,9.24
2023-02-23T06:18:10.984Z,9.25
2023-02-23T06:20:40.288Z,9.24
2023-02-23T06:23:07.626Z,9.27
2023-02-23T06:25:34.532Z,9.20
2023-02-23T06:28:01.040Z,9.17
2023-02-23T06:30:27.587Z,9.15
2023-02-23T06:32:54.160Z,9.20
2023-02-23T06:35:20.794Z,9.17
2023-02-23T06:37:47.310Z,9.21
2023-02-23T06:40:14.366Z,9.20
2023-02-23T06:42:40.870Z,9.18
2023-02-23T06:45:07.753Z,9.20
2023-02-23T06:47:36.827Z,9.17
2023-02-23T06:50:04.066Z,9.16
2023-02-23T06:52:30.613Z,9.14
2023-02-23T06:54:57.357Z,9.15
2023-02-23T06:57:23.904Z,9.15
2023-02-23T06:59:50.624Z,9.12
2023-02-23T07:02:17.855Z,9.06
2023-02-23T07:04:44.415Z,9.00
2023-02-23T07:07:11.955Z,8.99
2023-02-23T07:09:42.915Z,9.02
2023-02-23T07:12:10.644Z,8.97
2023-02-23T07:14:37.761Z,8.93
2023-02-23T07:17:05.635Z,8.92
2023-02-23T07:19:34.887Z,8.89
2023-02-23T07:22:01.416Z,8.87
2023-02-23T07:24:28.381Z,8.70
2023-02-23T07:26:55.263Z,8.67
2023-02-23T07:29:24.028Z,8.65
2023-02-23T07:31:50.878Z,8.65
2023-02-23T07:34:17.612Z,8.57
2023-02-23T07:36:44.219Z,8.56
2023-02-23T07:39:10.813Z,8.52
2023-02-23T07:41:37.637Z,8.52
2023-02-23T07:44:04.486Z,8.52
2023-02-23T07:46:31.027Z,8.57
2023-02-23T07:48:57.749Z,8.61
2023-02-23T07:51:24.558Z,8.64
2023-02-23T07:53:51.081Z,8.63
2023-02-23T07:56:17.709Z,8.64
2023-02-23T07:58:47.389Z,8.65
2023-02-23T08:01:14.435Z,8.65
2023-02-23T08:03:41.107Z,8.66
2023-02-23T08:06:07.944Z,8.69
2023-02-23T08:08:35.510Z,8.64
2023-02-23T08:11:03.800Z,8.58
2023-02-23T08:13:32.154Z,8.56
2023-02-23T08:15:59.700Z,8.59
2023-02-23T08:18:26.445Z,8.59
2023-02-23T08:20:58.653Z,8.61
2023-02-23T08:23:25.317Z,8.59
2023-02-23T08:25:53.834Z,8.59
2023-02-23T08:28:20.418Z,8.61
2023-02-23T08:30:47.051Z,8.64
2023-02-23T08:33:13.697Z,8.65
2023-02-23T08:35:40.183Z,8.66
2023-02-23T08:38:07.352Z,8.65
2023-02-23T08:40:33.886Z,8.64
2023-02-23T08:43:00.458Z,8.62
2023-02-23T08:45:29.384Z,8.64
2023-02-23T08:47:56.301Z,8.72
2023-02-23T08:50:25.264Z,8.79
2023-02-23T08:52:54.007Z,8.85
2023-02-23T08:55:21.801Z,8.89
2023-02-23T08:57:48.730Z,8.90
2023-02-23T09:00:16.926Z,8.96
2023-02-23T09:02:47.730Z,8.93
2023-02-23T09:05:14.889Z,8.93
2023-02-23T09:07:45.001Z,8.99
2023-02-23T09:10:19.903Z,8.99
2023-02-23T09:12:46.455Z,9.02
2023-02-23T09:15:13.100Z,9.02
2023-02-23T09:17:39.676Z,9.09
2023-02-23T09:20:06.602Z,9.06
2023-02-23T09:22:36.936Z,9.00
2023-02-23T09:25:04.924Z,8.98
2023-02-23T09:27:31.515Z,8.97
2023-02-23T09:29:58.064Z,9.07
2023-02-23T09:32:24.662Z,9.00
2023-02-23T09:34:52.513Z,9.01
2023-02-23T09:37:19.020Z,9.01
2023-02-23T09:39:45.797Z,9.04
2023-02-23T09:42:44.100Z,9.18
2023-02-23T09:45:29.789Z,9.17
2023-02-23T09:48:22.570Z,9.20
2023-02-23T09:50:55.160Z,9.34
2023-02-23T09:53:34.624Z,9.32
2023-02-23T09:56:06.883Z,9.40
2023-02-23T09:58:35.171Z,9.38
2023-02-23T10:01:32.204Z,9.39
2023-02-23T10:04:14.906Z,9.43
2023-02-23T10:06:45.568Z,9.37
2023-02-23T10:09:25.188Z,9.26
2023-02-23T10:12:10.142Z,9.23
2023-02-23T10:14:52.988Z,9.16
2023-02-23T10:17:57.780Z,9.11
2023-02-23T10:20:46.798Z,9.09
2023-02-23T10:23:21.614Z,9.09
2023-02-23T10:25:50.949Z,9.04
2023-02-23T10:28:21.852Z,9.10
2023-02-23T10:30:50.394Z,9.16
2023-02-23T10:33:30.995Z,9.10
2023-02-23T10:36:13.641Z,9.14
2023-02-23T10:38:40.559Z,9.10
2023-02-23T10:41:07.675Z,9.16
2023-02-23T10:43:34.226Z,9.16
2023-02-23T10:46:01.369Z,9.20
2023-02-23T10:48:43.235Z,9.19
2023-02-23T10:51:25.404Z,9.03
2023-02-23T10:53:53.011Z,8.88
2023-02-23T10:56:22.724Z,8.81
2023-02-23T10:58:51.957Z,8.75
2023-02-23T11:01:49.188Z,8.80
2023-02-23T11:04:32.677Z,8.75
2023-02-23T11:07:09.844Z,8.69
2023-02-23T11:09:46.463Z,8.76
2023-02-23T11:12:29.690Z,8.85
2023-02-23T11:14:58.151Z,8.96
2023-02-23T11:17:35.396Z,9.01
2023-02-23T11:20:06.479Z,9.12
2023-02-23T11:22:36.207Z,9.17
2023-02-23T11:25:12.958Z,9.17
2023-02-23T11:27:39.803Z,9.14
2023-02-23T11:30:07.767Z,9.11
2023-02-23T11:32:42.476Z,9.12
2023-02-23T11:35:12.121Z,9.12
2023-02-23T11:37:38.682Z,9.17
2023-02-23T11:40:31.851Z,9.14
2023-02-23T11:43:14.762Z,9.16
2023-02-23T11:45:53.473Z,9.06
2023-02-23T11:48:34.774Z,9.07
2023-02-23T11:51:02.259Z,9.03
2023-02-23T11:53:35.172Z,9.00
2023-02-23T11:56:07.953Z,9.03
2023-02-23T11:58:39.426Z,8.99
2023-02-23T12:01:12.309Z,9.00
2023-02-23T12:03:47.989Z,8.96
2023-02-23T12:06:36.998Z,9.00
2023-02-23T12:09:23.277Z,9.02
2023-02-23T12:12:05.425Z,9.08
2023-02-23T12:14:53.649Z,9.10
2023-02-23T12:17:27.021Z,9.07
2023-02-23T12:20:02.426Z,8.96
2023-02-23T12:22:35.318Z,8.95
2023-02-23T12:25:05.147Z,8.94
2023-02-23T12:27:46.551Z,9.01
2023-02-23T12:30:42.431Z,9.05
2023-02-23T12:33:15.465Z,9.05
2023-02-23T12:35:58.698Z,9.00
2023-02-23T12:39:06.933Z,9.04
2023-02-23T12:41:51.495Z,9.09
2023-02-23T12:44:35.497Z,9.14
2023-02-23T12:47:21.030Z,9.13
2023-02-23T12:50:04.715Z,9.03
2023-02-23T12:52:36.961Z,9.02
2023-02-23T12:55:09.477Z,9.10
2023-02-23T12:57:55.574Z,9.07
2023-02-23T13:00:59.227Z,9.08
2023-02-23T13:03:44.944Z,9.16
2023-02-23T13:06:50.335Z,9.04
2023-02-23T13:09:35.656Z,9.09
2023-02-23T13:12:23.607Z,9.15
2023-02-23T13:15:12.788Z,9.15
2023-02-23T13:17:45.930Z,9.15
2023-02-23T13:20:27.690Z,9.15
2023-02-23T13:23:18.067Z,9.15
2023-02-23T13:26:24.979Z,9.14
2023-02-23T13:28:58.714Z,9.16
2023-02-23T13:31:29.889Z,9.10
2023-02-23T13:33:58.924Z,9.14
2023-02-23T13:36:29.517Z,9.10
2023-02-23T13:39:22.496Z,9.06
2023-02-23T13:42:04.389Z,9.02
2023-02-23T13:44:58.966Z,9.04
2023-02-23T13:47:57.484Z,9.02
2023-02-23T13:50:51.710Z,9.02
2023-02-23T13:53:47.886Z,9.05
2023-02-23T13:56:20.125Z,9.11
2023-02-23T13:58:51.845Z,9.04
2023-02-23T14:01:25.990Z,9.04
2023-02-23T14:03:55.924Z,9.05
2023-02-23T14:06:25.998Z,9.01
2023-02-23T14:09:00.731Z,9.02
2023-02-23T14:11:29.961Z,9.03
2023-02-23T14:14:02.929Z,8.99
2023-02-23T14:16:30.083Z,9.00
2023-02-23T14:19:12.430Z,8.97
2023-02-23T14:22:02.664Z,9.03
2023-02-23T14:24:32.336Z,9.05
2023-02-23T14:27:08.637Z,9.04
2023-02-23T14:30:05.273Z,9.08
2023-02-23T14:32:38.570Z,9.05
2023-02-23T14:35:05.682Z,9.00
2023-02-23T14:37:58.583Z,8.98
2023-02-23T14:40:32.827Z,8.92
2023-02-23T14:43:03.334Z,8.92
2023-02-23T14:45:32.977Z,8.93
2023-02-23T14:48:05.369Z,8.98
2023-02-23T14:50:35.308Z,8.97
2023-02-23T14:53:04.452Z,9.05
2023-02-23T14:55:35.399Z,9.06
2023-02-23T14:58:21.206Z,9.18
2023-02-23T15:00:49.090Z,9.22
2023-02-23T15:03:15.564Z,9.27
2023-02-23T15:05:47.469Z,9.29
2023-02-23T15:08:17.228Z,9.22
2023-02-23T15:10:46.645Z,9.18
2023-02-23T15:13:31.865Z,9.18
2023-02-23T15:16:03.832Z,9.16
2023-02-23T15:18:36.414Z,9.14
2023-02-23T15:21:19.796Z,9.15
2023-02-23T15:23:51.086Z,9.08
2023-02-23T15:26:32.264Z,9.12
2023-02-23T15:29:13.594Z,9.12
2023-02-23T15:31:50.166Z,9.10
2023-02-23T15:34:22.023Z,9.08
2023-02-23T15:36:54.563Z,9.07
2023-02-23T15:39:35.381Z,9.12
2023-02-23T15:42:05.693Z,9.07
2023-02-23T15:44:43.562Z,9.08
2023-02-23T15:47:22.004Z,9.04
2023-02-23T15:49:50.267Z,9.01
2023-02-23T15:52:24.114Z,9.00
2023-02-23T15:55:01.588Z,8.95
2023-02-23T15:57:52.606Z,9.00
2023-02-23T16:00:32.495Z,8.96
2023-02-23T16:03:02.562Z,8.92
2023-02-23T16:05:41.869Z,8.90
2023-02-23T16:08:24.910Z,8.87
2023-02-23T16:11:03.883Z,8.87
2023-02-23T16:13:30.725Z,8.90
2023-02-23T16:15:57.586Z,8.92
2023-02-23T16:18:37.254Z,8.93
2023-02-23T16:21:05.012Z,8.91
2023-02-23T16:23:44.614Z,8.93
2023-02-23T16:26:19.389Z,8.92
2023-02-23T16:28:47.182Z,8.91
2023-02-23T16:31:20.254Z,8.90
2023-02-23T16:33:57.138Z,8.93
2023-02-23T16:36:33.477Z,8.91
2023-02-23T16:39:02.502Z,8.85
2023-02-23T16:41:31.569Z,8.83
2023-02-23T16:44:00.797Z,8.80
2023-02-23T16:46:37.739Z,8.74
2023-02-23T16:49:10.214Z,8.69
2023-02-23T16:51:36.903Z,8.68
2023-02-23T16:54:04.110Z,8.65
2023-02-23T16:56:31.282Z,8.64
2023-02-23T16:59:03.079Z,8.65
2023-02-23T17:01:29.689Z,8.65
2023-02-23T17:03:56.377Z,8.66
2023-02-23T17:06:23.308Z,8.67
2023-02-23T17:08:57.586Z,8.69
2023-02-23T17:11:25.789Z,8.65
2023-02-23T17:13:52.326Z,8.57
2023-02-23T17:16:19.767Z,8.58
2023-02-23T17:18:46.627Z,8.60
2023-02-23T17:21:23.745Z,8.60
2023-02-23T17:23:51.921Z,8.59
2023-02-23T17:26:23.613Z,8.56
2023-02-23T17:28:51.495Z,8.54
2023-02-23T17:31:20.137Z,8.52
2023-02-23T17:33:47.591Z,8.51
2023-02-23T17:36:16.403Z,8.47
2023-02-23T17:38:46.419Z,8.43
2023-02-23T17:41:19.229Z,8.38
2023-02-23T17:43:46.242Z,8.43
2023-02-23T17:46:13.627Z,8.35
2023-02-23T17:48:40.915Z,8.33
2023-02-23T17:51:12.091Z,8.30
2023-02-23T17:53:39.965Z,8.35
2023-02-23T17:56:06.927Z,8.39
2023-02-23T17:58:33.689Z,8.38
2023-02-23T18:01:02.274Z,8.40
2023-02-23T18:03:32.137Z,8.38
2023-02-23T18:06:01.086Z,8.42
2023-02-23T18:08:30.250Z,8.49
2023-02-23T18:10:57.523Z,8.52
2023-02-23T18:13:24.992Z,8.52
2023-02-23T18:15:53.535Z,8.51
2023-02-23T18:18:21.495Z,8.48
2023-02-23T18:20:52.322Z,8.49
2023-02-23T18:23:19.900Z,8.44
2023-02-23T18:25:47.102Z,8.41
2023-02-23T18:28:14.799Z,8.37
2023-02-23T18:30:42.386Z,8.40
2023-02-23T18:33:12.415Z,8.36
2023-02-23T18:35:42.939Z,8.37
2023-02-23T18:38:14.793Z,8.37
2023-02-23T18:40:41.925Z,8.37
2023-02-23T18:43:08.730Z,8.38
2023-02-23T18:45:35.321Z,8.38
2023-02-23T18:48:01.938Z,8.34
2023-02-23T18:50:28.552Z,8.38
2023-02-23T18:52:56.581Z,8.41
2023-02-23T18:55:26.260Z,8.44
2023-02-23T18:57:52.864Z,8.43
2023-02-23T19:00:20.434Z,8.48
2023-02-23T19:02:47.608Z,8.48
2023-02-23T19:05:15.645Z,8.49
2023-02-23T19:07:42.637Z,8.49
2023-02-23T19:10:12.303Z,8.50
2023-02-23T19:12:39.709Z,8.51
2023-02-23T19:15:08.225Z,8.52
2023-02-23T19:17:35.943Z,8.51
2023-02-23T19:20:02.562Z,8.53
2023-02-23T19:22:29.752Z,8.55
2023-02-23T19:24:56.286Z,8.52
2023-02-23T19:27:23.027Z,8.54
2023-02-23T19:29:49.581Z,8.52
2023-02-23T19:32:18.888Z,8.51
2023-02-23T19:34:48.052Z,8.49
2023-02-23T19:37:14.671Z,8.55
2023-02-23T19:39:41.323Z,8.50
2023-02-23T19:42:08.714Z,8.49
2023-02-23T19:44:35.233Z,8.50
2023-02-23T19:47:01.770Z,8.50
2023-02-23T19:49:28.346Z,8.49
2023-02-23T19:51:54.868Z,8.51
2023-02-23T19:54:21.716Z,8.55
2023-02-23T19:56:49.980Z,8.58
2023-02-23T19:59:18.743Z,8.57
2023-02-23T20:01:46.290Z,8.57
2023-02-23T20:04:12.954Z,8.59
2023-02-23T20:06:44.753Z,8.58
2023-02-23T20:09:11.695Z,8.61
2023-02-23T20:11:38.213Z,8.60
2023-02-23T20:14:05.243Z,8.55
2023-02-23T20:16:31.947Z,8.56
2023-02-23T20:18:59.126Z,8.59
2023-02-23T20:21:30.672Z,8.58
2023-02-23T20:23:57.879Z,8.59
2023-02-23T20:26:28.017Z,8.60
2023-02-23T20:28:56.267Z,8.61
2023-02-23T20:31:26.504Z,8.56
2023-02-23T20:33:56.076Z,8.51
2023-02-23T20:36:23.524Z,8.30
2023-02-23T20:38:50.251Z,8.23
2023-02-23T20:41:17.602Z,8.18
2023-02-23T20:43:45.371Z,7.95
2023-02-23T20:46:13.675Z,7.82
2023-02-23T20:48:40.961Z,7.83
2023-02-23T20:51:12.912Z,7.69
2023-02-23T20:53:46.641Z,7.61
2023-02-23T20:56:16.506Z,7.58
2023-02-23T20:58:43.814Z,7.55
2023-02-23T21:01:22.976Z,7.46
2023-02-23T21:03:51.860Z,7.42
2023-02-23T21:06:20.106Z,7.36
2023-02-23T21:08:49.301Z,7.35
2023-02-23T21:11:17.755Z,7.38
2023-02-23T21:13:44.497Z,7.37
2023-02-23T21:16:15.274Z,7.30
2023-02-23T21:18:42.758Z,7.18
2023-02-23T21:21:10.264Z,7.17
2023-02-23T21:23:45.322Z,7.20
2023-02-23T21:26:16.037Z,7.12
2023-02-23T21:28:44.866Z,7.07
2023-02-23T21:31:13.565Z,7.05
2023-02-23T21:33:42.003Z,6.98
2023-02-23T21:36:10.686Z,6.95
2023-02-23T21:38:42.432Z,6.97
2023-02-23T21:41:10.062Z,6.94
2023-02-23T21:43:38.311Z,6.93
2023-02-23T21:46:14.139Z,6.90
2023-02-23T21:48:41.885Z,6.91
2023-02-23T21:51:14.343Z,6.87
2023-02-23T21:53:41.595Z,6.89
2023-02-23T21:56:17.189Z,6.98
2023-02-23T21:58:47.441Z,7.00
2023-02-23T22:01:16.174Z,7.00
2023-02-23T22:03:44.818Z,7.00
2023-02-23T22:06:19.358Z,7.03
2023-02-23T22:08:47.612Z,7.02
2023-02-23T22:11:17.636Z,7.03
2023-02-23T22:13:48.783Z,7.03
2023-02-23T22:16:17.870Z,7.07
2023-02-23T22:18:44.667Z,6.98
2023-02-23T22:21:12.725Z,6.98
2023-02-23T22:23:48.033Z,6.96
2023-02-23T22:26:14.655Z,6.96
2023-02-23T22:28:41.231Z,6.97
2023-02-23T22:31:12.118Z,6.97
2023-02-23T22:33:41.778Z,7.00
2023-02-23T22:36:13.426Z,7.00
2023-02-23T22:38:43.576Z,6.95
2023-02-23T22:41:11.736Z,6.92
2023-02-23T22:43:40.137Z,6.96
2023-02-23T22:46:07.936Z,6.99
2023-02-23T22:48:36.296Z,6.88
2023-02-23T22:51:03.374Z,6.82
2023-02-23T22:53:30.338Z,6.81
2023-02-23T22:55:57.300Z,6.77
2023-02-23T22:58:26.521Z,6.78
2023-02-23T23:01:03.948Z,6.72
2023-02-23T23:03:42.588Z,6.71
2023-02-23T23:06:10.965Z,6.63
2023-02-23T23:08:40.786Z,6.64
2023-02-23T23:11:16.411Z,6.58
2023-02-23T23:13:45.760Z,6.51
2023-02-23T23:16:29.112Z,6.47
2023-02-23T23:19:12.297Z,6.51
2023-02-23T23:21:42.029Z,6.47
2023-02-23T23:24:13.362Z,6.48
2023-02-23T23:26:41.095Z,6.52
2023-02-23T23:29:11.426Z,6.57
2023-02-23T23:31:39.895Z,6.62
2023-02-23T23:34:11.963Z,6.60
2023-02-23T23:36:43.115Z,6.61
2023-02-23T23:39:15.338Z,6.48
2023-02-23T23:41:43.496Z,6.42
2023-02-23T23:44:10.800Z,6.48
2023-02-23T23:46:38.994Z,6.46
2023-02-23T23:49:11.123Z,6.50
2023-02-23T23:51:45.047Z,6.48
2023-02-23T23:54:14.903Z,6.54
2023-02-23T23:56:41.925Z,6.59
2023-02-23T23:59:11.108Z,6.63
